Hovedside
METAR-TAF:

METAR-TAF

Lufthavner :

Tasjkent internasjonale lufthavn

Tasjkent, Usbekistan

breddegrad: 41-16N, lengdegrad: 069-16E, høyde over havet: 489 m

Gjeldene værobservasjon

Denne rapporten ble laget for 28 minutter siden, klokken 19:00 UTC
Flau vind
Temperatur 7°C
Luftfuktighet 61%
Trykk 1026 hPa
Sikt: 4000 m
røyk

METAR: UTTT 151900Z 00000KT 4000 FU NSC 07/M00 Q1026 R08R/CLRD70 NOSIG

Tid: 00:28 (19:28 UTC)

Varsel

Denne rapporten ble laget for 2 timer og 28 minutter siden, klokken 17:00 UTC
Varsel gyldig fra 15. klokken 18 UTC til 16. klokken 18 UTC
Vind 10 kt fra Øst
Sikt: 5000 m
røyk
Midlertidig
fra 15. klokken 18 UTC til 15. klokken 22 UTC
Vind 12 kt fra Nord-nordvest
Midlertidig
fra 15. klokken 22 UTC til 16. klokken 04 UTC
Sikt: 2500 m
dis

TAF: UTTT 151700Z 1518/1618 08010KT 5000 FU NSC TEMPO 1518/1522 34012KT TEMPO 1522/1604 2500 BR

Værobservasjoner og værvarsel for over 4000 flyplasser (METAR- og TAF-rapporter).

Tilgjengelige stasjoner er representert av de røde og gule prikkene på kartet.

Hold musepekeren over prikken for å se navnet på stasjonen.

Klikk så for å se værobservasjoner og -varsler.

For å forandre kartet kan du klikke på den grønne knappen med svart kryss for å zoome inn, på den grønne knappen med strek for å zoome ut, eller på de grønne pilene for å se tilstøtende kart.


METAR-TAF: